Sugar Grove, North Carolina
Current Conditions -  °F | °C
As of 3:15 AM on Friday 24 Oct 2014 (Local Time) from KTNB Reporting Station
Clear Clear  
Wind Chill: 40°   Ceiling: Unl
Heat Index: 43°   Visibility: 10mi
Dew Point: 34°   Wind: 5mph
Humidity: 72%   Direction: 290°WNW
Pressure: 30.09"   Gusts: NA
Location:  36.26°N, 81.79°W
Report Text: KTNB 240715Z AUTO 29004KT 10SM CLR 06/01 A3009 RMK AO2 T00600012
Loading
Personal Weather Stations






























Interactive Weather Map
Tropical Storm Tracking
New forecast layout! Learn more

10-Day Weather Forecast

Advertisements
Track Severe Weather on mobile